createdAt,value
2022-11-27T00:02:14.566Z,7.17
2022-11-27T00:04:41.215Z,7.31
2022-11-27T00:07:07.876Z,7.59
2022-11-27T00:09:34.609Z,7.89
2022-11-27T00:12:01.345Z,8.14
2022-11-27T00:14:27.870Z,8.09
2022-11-27T00:16:54.520Z,7.88
2022-11-27T00:19:21.055Z,7.88
2022-11-27T00:21:47.543Z,7.98
2022-11-27T00:24:14.049Z,8.06
2022-11-27T00:26:40.866Z,8.16
2022-11-27T00:29:07.629Z,8.16
2022-11-27T00:31:36.610Z,8.25
2022-11-27T00:34:04.211Z,8.41
2022-11-27T00:36:31.579Z,8.44
2022-11-27T00:38:58.772Z,8.35
2022-11-27T00:41:26.824Z,8.24
2022-11-27T00:43:53.967Z,8.15
2022-11-27T00:46:26.865Z,8.10
2022-11-27T00:48:56.445Z,7.72
2022-11-27T00:51:23.766Z,7.76
2022-11-27T00:53:50.428Z,7.76
2022-11-27T00:56:18.325Z,7.48
2022-11-27T00:58:45.003Z,7.31
2022-11-27T01:01:20.006Z,7.29
2022-11-27T01:03:46.936Z,7.37
2022-11-27T01:06:13.927Z,7.60
2022-11-27T01:08:40.926Z,7.65
2022-11-27T01:11:11.714Z,7.50
2022-11-27T01:13:38.398Z,7.37
2022-11-27T01:16:09.611Z,7.61
2022-11-27T01:18:37.400Z,7.81
2022-11-27T01:21:04.608Z,7.95
2022-11-27T01:23:31.560Z,8.09
2022-11-27T01:26:01.556Z,8.02
2022-11-27T01:28:28.556Z,8.09
2022-11-27T01:30:55.498Z,8.28
2022-11-27T01:33:22.651Z,8.26
2022-11-27T01:36:04.860Z,8.26
2022-11-27T01:38:31.963Z,8.54
2022-11-27T01:40:59.968Z,8.71
2022-11-27T01:43:45.421Z,8.69
2022-11-27T01:46:17.537Z,8.27
2022-11-27T01:48:46.350Z,7.90
2022-11-27T01:51:13.038Z,7.74
2022-11-27T01:53:39.613Z,7.26
2022-11-27T01:56:07.686Z,7.40
2022-11-27T01:58:34.592Z,7.76
2022-11-27T02:01:01.181Z,7.69
2022-11-27T02:03:27.938Z,7.44
2022-11-27T02:05:54.786Z,7.56
2022-11-27T02:08:21.664Z,7.76
2022-11-27T02:10:48.487Z,7.95
2022-11-27T02:13:20.106Z,8.03
2022-11-27T02:15:52.756Z,8.11
2022-11-27T02:18:22.501Z,8.10
2022-11-27T02:20:57.605Z,7.99
2022-11-27T02:23:35.841Z,7.82
2022-11-27T02:26:18.079Z,7.49
2022-11-27T02:28:54.047Z,7.30
2022-11-27T02:31:39.494Z,7.43
2022-11-27T02:34:12.496Z,7.57
2022-11-27T02:36:40.327Z,7.51
2022-11-27T02:39:14.267Z,7.31
2022-11-27T02:41:45.455Z,7.40
2022-11-27T02:44:12.450Z,7.53
2022-11-27T02:46:40.263Z,7.84
2022-11-27T02:49:09.766Z,7.94
2022-11-27T02:51:39.430Z,7.87
2022-11-27T02:54:07.545Z,7.83
2022-11-27T02:56:34.587Z,7.79
2022-11-27T02:59:04.483Z,7.59
2022-11-27T03:01:36.363Z,7.71
2022-11-27T03:04:05.925Z,7.93
2022-11-27T03:06:36.249Z,8.17
2022-11-27T03:09:08.382Z,8.14
2022-11-27T03:11:36.106Z,8.33
2022-11-27T03:14:07.972Z,8.28
2022-11-27T03:16:40.381Z,8.10
2022-11-27T03:19:19.029Z,8.22
2022-11-27T03:21:45.500Z,8.26
2022-11-27T03:24:12.306Z,8.12
2022-11-27T03:26:39.753Z,8.00
2022-11-27T03:29:10.455Z,8.13
2022-11-27T03:31:37.579Z,8.28
2022-11-27T03:34:04.439Z,8.32
2022-11-27T03:36:30.909Z,8.48
2022-11-27T03:38:57.674Z,8.34
2022-11-27T03:41:43.226Z,8.20
2022-11-27T03:44:29.326Z,8.23
2022-11-27T03:46:58.688Z,7.95
2022-11-27T03:49:51.682Z,7.87
2022-11-27T03:52:35.359Z,7.70
2022-11-27T03:55:11.882Z,7.79
2022-11-27T03:57:51.160Z,7.96
2022-11-27T04:00:18.160Z,8.06
2022-11-27T04:02:49.729Z,8.22
2022-11-27T04:05:16.655Z,8.31
2022-11-27T04:07:43.195Z,8.47
2022-11-27T04:10:10.307Z,8.35
2022-11-27T04:12:37.637Z,8.25
2022-11-27T04:15:05.277Z,8.26
2022-11-27T04:17:32.092Z,8.31
2022-11-27T04:19:58.610Z,8.41
2022-11-27T04:22:25.160Z,8.09
2022-11-27T04:24:51.798Z,8.00
2022-11-27T04:27:18.309Z,7.89
2022-11-27T04:29:45.101Z,7.93
2022-11-27T04:32:11.765Z,7.70
2022-11-27T04:34:38.605Z,7.58
2022-11-27T04:37:05.475Z,7.48
2022-11-27T04:39:32.028Z,7.41
2022-11-27T04:41:58.767Z,7.57
2022-11-27T04:44:25.253Z,7.75
2022-11-27T04:46:51.934Z,8.05
2022-11-27T04:49:18.563Z,8.20
2022-11-27T04:51:45.314Z,8.35
2022-11-27T04:54:12.009Z,8.46
2022-11-27T04:56:38.475Z,8.61
2022-11-27T04:59:05.191Z,8.60
2022-11-27T05:01:31.780Z,8.04
2022-11-27T05:03:58.492Z,7.72
2022-11-27T05:06:25.128Z,7.86
2022-11-27T05:08:59.156Z,8.09
2022-11-27T05:11:25.656Z,8.15
2022-11-27T05:14:12.570Z,8.20
2022-11-27T05:16:40.390Z,8.36
2022-11-27T05:19:09.175Z,8.37
2022-11-27T05:21:36.701Z,8.29
2022-11-27T05:24:03.920Z,8.18
2022-11-27T05:26:30.426Z,7.93
2022-11-27T05:28:57.126Z,7.94
2022-11-27T05:31:23.845Z,7.81
2022-11-27T05:33:50.727Z,7.39
2022-11-27T05:36:17.437Z,7.07
2022-11-27T05:38:44.019Z,7.36
2022-11-27T05:41:10.816Z,7.75
2022-11-27T05:43:37.342Z,8.08
2022-11-27T05:46:05.314Z,8.19
2022-11-27T05:48:32.108Z,8.25
2022-11-27T05:50:59.286Z,8.46
2022-11-27T05:53:25.839Z,8.52
2022-11-27T05:55:52.443Z,8.60
2022-11-27T05:58:18.985Z,8.78
2022-11-27T06:00:45.638Z,8.85
2022-11-27T06:03:12.332Z,8.85
2022-11-27T06:05:39.639Z,8.77
2022-11-27T06:08:06.648Z,8.78
2022-11-27T06:10:33.326Z,8.62
2022-11-27T06:12:59.962Z,8.49
2022-11-27T06:15:26.418Z,8.22
2022-11-27T06:17:53.028Z,7.79
2022-11-27T06:20:19.918Z,7.76
2022-11-27T06:22:46.762Z,7.92
2022-11-27T06:25:13.415Z,8.03
2022-11-27T06:27:40.191Z,8.14
2022-11-27T06:30:07.441Z,8.19
2022-11-27T06:32:34.485Z,8.16
2022-11-27T06:35:01.029Z,8.12
2022-11-27T06:37:27.659Z,8.10
2022-11-27T06:39:54.294Z,8.11
2022-11-27T06:42:21.086Z,8.15
2022-11-27T06:44:47.710Z,8.22
2022-11-27T06:47:14.653Z,8.38
2022-11-27T06:49:41.268Z,8.57
2022-11-27T06:52:07.806Z,8.64
2022-11-27T06:54:34.321Z,8.65
2022-11-27T06:57:01.349Z,8.65
2022-11-27T06:59:27.922Z,8.73
2022-11-27T07:01:54.639Z,8.84
2022-11-27T07:04:21.370Z,8.91
2022-11-27T07:06:47.819Z,8.89
2022-11-27T07:09:14.861Z,8.78
2022-11-27T07:11:41.350Z,8.69
2022-11-27T07:14:07.899Z,8.68
2022-11-27T07:16:35.732Z,8.81
2022-11-27T07:19:04.665Z,8.99
2022-11-27T07:21:31.238Z,8.68
2022-11-27T07:23:58.051Z,8.43
2022-11-27T07:26:26.229Z,8.52
2022-11-27T07:28:53.276Z,8.56
2022-11-27T07:31:21.187Z,8.39
2022-11-27T07:33:48.076Z,8.43
2022-11-27T07:36:19.877Z,8.61
2022-11-27T07:38:46.445Z,8.95
2022-11-27T07:41:13.598Z,9.04
2022-11-27T07:43:41.084Z,9.39
2022-11-27T07:46:12.675Z,9.76
2022-11-27T07:48:39.463Z,9.92
2022-11-27T07:51:10.215Z,9.85
2022-11-27T07:53:37.868Z,9.92
2022-11-27T07:56:05.378Z,10.12
2022-11-27T07:58:32.215Z,10.12
2022-11-27T08:00:58.820Z,10.00
2022-11-27T08:03:25.454Z,10.11
2022-11-27T08:05:52.181Z,10.38
2022-11-27T08:08:18.685Z,10.55
2022-11-27T08:10:45.339Z,10.72
2022-11-27T08:13:11.812Z,10.95
2022-11-27T08:15:38.439Z,11.09
2022-11-27T08:18:04.950Z,11.24
2022-11-27T08:20:31.516Z,11.28
2022-11-27T08:23:02.697Z,11.33
2022-11-27T08:25:30.160Z,11.61
2022-11-27T08:27:56.733Z,11.68
2022-11-27T08:30:23.516Z,11.50
2022-11-27T08:32:50.094Z,11.56
2022-11-27T08:35:17.076Z,11.34
2022-11-27T08:37:43.762Z,10.95
2022-11-27T08:40:10.655Z,10.60
2022-11-27T08:42:37.153Z,10.37
2022-11-27T08:45:03.868Z,10.24
2022-11-27T08:47:31.834Z,10.41
2022-11-27T08:49:58.402Z,10.38
2022-11-27T08:52:25.959Z,10.44
2022-11-27T08:54:57.341Z,10.66
2022-11-27T08:57:24.693Z,10.90
2022-11-27T08:59:51.546Z,11.18
2022-11-27T09:02:18.140Z,11.30
2022-11-27T09:04:44.658Z,11.32
2022-11-27T09:07:13.632Z,11.26
2022-11-27T09:09:40.514Z,10.97
2022-11-27T09:12:07.587Z,10.94
2022-11-27T09:14:34.088Z,11.03
2022-11-27T09:17:00.596Z,11.18
2022-11-27T09:19:27.471Z,11.30
2022-11-27T09:21:53.998Z,11.45
2022-11-27T09:24:20.568Z,11.33
2022-11-27T09:26:47.365Z,11.00
2022-11-27T09:29:14.085Z,10.93
2022-11-27T09:31:40.713Z,11.13
2022-11-27T09:34:07.509Z,11.22
2022-11-27T09:36:34.131Z,11.20
2022-11-27T09:39:02.963Z,11.34
2022-11-27T09:41:43.587Z,11.32
2022-11-27T09:44:25.619Z,10.03
2022-11-27T09:46:53.890Z,10.08
2022-11-27T09:49:24.056Z,10.29
2022-11-27T09:51:55.761Z,10.29
2022-11-27T09:54:33.015Z,10.30
2022-11-27T09:56:59.850Z,10.47
2022-11-27T09:59:33.815Z,10.72
2022-11-27T10:02:00.430Z,10.93
2022-11-27T10:04:30.375Z,11.26
2022-11-27T10:07:06.535Z,11.46
2022-11-27T10:09:45.611Z,11.53
2022-11-27T10:12:29.585Z,11.37
2022-11-27T10:15:06.730Z,11.18
2022-11-27T10:17:37.400Z,11.35
2022-11-27T10:20:15.366Z,11.52
2022-11-27T10:22:47.224Z,11.46
2022-11-27T10:25:20.009Z,11.48
2022-11-27T10:27:58.520Z,11.53
2022-11-27T10:30:28.026Z,11.47
2022-11-27T10:32:56.687Z,11.53
2022-11-27T10:35:25.975Z,11.76
2022-11-27T10:38:03.692Z,11.83
2022-11-27T10:40:42.379Z,11.80
2022-11-27T10:43:14.997Z,12.11
2022-11-27T10:45:50.486Z,12.43
2022-11-27T10:48:17.684Z,12.36
2022-11-27T10:50:45.482Z,12.32
2022-11-27T10:53:22.954Z,12.27
2022-11-27T10:55:52.994Z,12.36
2022-11-27T10:58:34.250Z,12.45
2022-11-27T11:01:08.870Z,12.54
2022-11-27T11:03:35.918Z,12.66
2022-11-27T11:06:23.139Z,12.60
2022-11-27T11:09:12.150Z,12.60
2022-11-27T11:11:39.965Z,12.72
2022-11-27T11:14:22.842Z,12.97
2022-11-27T11:16:49.699Z,12.89
2022-11-27T11:19:28.444Z,12.93
2022-11-27T11:21:55.136Z,12.93
2022-11-27T11:24:27.120Z,12.97
2022-11-27T11:26:56.341Z,12.79
2022-11-27T11:29:29.131Z,12.57
2022-11-27T11:31:57.261Z,12.41
2022-11-27T11:34:27.825Z,12.24
2022-11-27T11:36:58.969Z,12.12
2022-11-27T11:39:27.554Z,12.20
2022-11-27T11:41:54.083Z,11.70
2022-11-27T11:44:36.150Z,11.44
2022-11-27T11:47:02.775Z,11.35
2022-11-27T11:49:32.229Z,11.39
2022-11-27T11:52:04.835Z,11.44
2022-11-27T11:54:42.520Z,11.65
2022-11-27T11:57:18.388Z,11.78
2022-11-27T11:59:55.370Z,12.15
2022-11-27T12:02:34.658Z,12.44
2022-11-27T12:05:20.766Z,12.71
2022-11-27T12:07:58.490Z,13.13
2022-11-27T12:10:28.453Z,13.36
2022-11-27T12:12:58.163Z,13.47
2022-11-27T12:15:34.055Z,13.26
2022-11-27T12:18:07.283Z,13.14
2022-11-27T12:20:54.074Z,12.85
2022-11-27T12:23:39.068Z,12.99
2022-11-27T12:26:24.380Z,13.10
2022-11-27T12:29:03.758Z,13.15
2022-11-27T12:31:52.026Z,13.27
2022-11-27T12:34:37.460Z,13.24
2022-11-27T12:37:14.363Z,13.24
2022-11-27T12:39:56.785Z,13.04
2022-11-27T12:42:43.629Z,12.91
2022-11-27T12:45:20.870Z,12.68
2022-11-27T12:47:52.367Z,12.67
2022-11-27T12:50:42.387Z,12.62
2022-11-27T12:53:20.162Z,12.54
2022-11-27T12:56:02.354Z,12.60
2022-11-27T12:58:33.508Z,12.63
2022-11-27T13:01:02.765Z,12.57
2022-11-27T13:03:43.645Z,12.56
2022-11-27T13:06:13.681Z,12.57
2022-11-27T13:08:40.283Z,12.61
2022-11-27T13:11:09.565Z,12.59
2022-11-27T13:13:54.657Z,12.60
2022-11-27T13:16:26.429Z,12.50
2022-11-27T13:18:56.054Z,12.34
2022-11-27T13:21:25.919Z,12.30
2022-11-27T13:23:53.552Z,12.25
2022-11-27T13:26:27.000Z,12.18
2022-11-27T13:28:58.915Z,12.08
2022-11-27T13:31:27.680Z,11.98
2022-11-27T13:33:59.216Z,11.86
2022-11-27T13:36:30.026Z,11.86
2022-11-27T13:39:00.322Z,11.72
2022-11-27T13:41:40.571Z,11.54
2022-11-27T13:44:23.810Z,11.50
2022-11-27T13:46:54.776Z,11.47
2022-11-27T13:49:27.557Z,11.42
2022-11-27T13:52:06.076Z,11.33
2022-11-27T13:54:32.937Z,11.28
2022-11-27T13:57:16.061Z,11.24
2022-11-27T13:59:54.420Z,11.18
2022-11-27T14:02:21.194Z,11.14
2022-11-27T14:04:56.182Z,11.13
2022-11-27T14:07:33.817Z,11.08
2022-11-27T14:10:06.619Z,11.05
2022-11-27T14:12:33.764Z,11.03
2022-11-27T14:15:02.994Z,10.88
2022-11-27T14:17:34.212Z,10.84
2022-11-27T14:20:05.865Z,10.79
2022-11-27T14:22:48.535Z,10.71
2022-11-27T14:25:24.950Z,10.63
2022-11-27T14:28:13.911Z,10.54
2022-11-27T14:30:51.133Z,10.48
2022-11-27T14:33:25.185Z,10.38
2022-11-27T14:35:58.878Z,10.28
2022-11-27T14:38:26.670Z,10.24
2022-11-27T14:40:54.531Z,10.26
2022-11-27T14:43:28.231Z,10.15
2022-11-27T14:46:00.653Z,9.99
2022-11-27T14:48:30.813Z,9.89
2022-11-27T14:50:58.019Z,9.85
2022-11-27T14:53:26.852Z,9.92
2022-11-27T14:55:55.650Z,9.88
2022-11-27T14:58:24.644Z,9.86
2022-11-27T15:01:02.439Z,9.89
2022-11-27T15:03:29.783Z,9.88
2022-11-27T15:05:57.997Z,9.77
2022-11-27T15:08:25.468Z,9.72
2022-11-27T15:10:53.723Z,9.67
2022-11-27T15:13:25.012Z,9.63
2022-11-27T15:15:53.994Z,9.54
2022-11-27T15:18:22.386Z,9.51
2022-11-27T15:20:49.635Z,9.43
2022-11-27T15:23:19.027Z,9.32
2022-11-27T15:25:48.366Z,9.17
2022-11-27T15:28:36.944Z,8.96
2022-11-27T15:31:22.740Z,8.82
2022-11-27T15:33:57.355Z,8.90
2022-11-27T15:36:24.221Z,8.90
2022-11-27T15:38:51.010Z,8.88
2022-11-27T15:41:29.629Z,8.94
2022-11-27T15:43:56.813Z,8.98
2022-11-27T15:46:25.684Z,9.06
2022-11-27T15:48:52.400Z,9.16
2022-11-27T15:51:18.995Z,9.24
2022-11-27T15:53:46.831Z,9.35
2022-11-27T15:56:15.227Z,9.40
2022-11-27T15:58:42.333Z,9.35
2022-11-27T16:01:09.794Z,9.33
2022-11-27T16:03:36.636Z,9.33
2022-11-27T16:06:04.349Z,9.35
2022-11-27T16:08:31.538Z,9.41
2022-11-27T16:11:05.450Z,9.40
2022-11-27T16:13:32.500Z,9.38
2022-11-27T16:16:01.440Z,9.31
2022-11-27T16:18:28.532Z,9.17
2022-11-27T16:20:55.189Z,9.05
2022-11-27T16:23:21.806Z,8.92
2022-11-27T16:25:48.685Z,8.79
2022-11-27T16:28:15.286Z,8.68
2022-11-27T16:30:43.571Z,8.70
2022-11-27T16:33:10.302Z,8.70
2022-11-27T16:35:37.823Z,8.73
2022-11-27T16:38:04.500Z,8.72
2022-11-27T16:40:34.134Z,8.64
2022-11-27T16:43:01.165Z,8.52
2022-11-27T16:45:28.218Z,8.38
2022-11-27T16:47:55.413Z,8.30
2022-11-27T16:50:23.355Z,8.26
2022-11-27T16:52:54.412Z,8.40
2022-11-27T16:55:23.039Z,8.58
2022-11-27T16:57:49.578Z,8.72
2022-11-27T17:00:16.479Z,8.82
2022-11-27T17:02:43.212Z,8.95
2022-11-27T17:05:10.232Z,9.06
2022-11-27T17:07:36.812Z,9.21
2022-11-27T17:10:03.434Z,9.38
2022-11-27T17:12:31.561Z,9.59
2022-11-27T17:14:58.080Z,9.62
2022-11-27T17:17:24.814Z,9.52
2022-11-27T17:19:54.559Z,9.50
2022-11-27T17:22:21.233Z,9.40
2022-11-27T17:24:47.806Z,9.26
2022-11-27T17:27:15.153Z,9.05
2022-11-27T17:29:42.237Z,8.93
2022-11-27T17:32:12.256Z,8.65
2022-11-27T17:34:39.162Z,8.57
2022-11-27T17:37:05.757Z,8.63
2022-11-27T17:39:32.844Z,8.48
2022-11-27T17:41:59.485Z,8.26
2022-11-27T17:44:26.866Z,7.87
2022-11-27T17:46:53.526Z,7.71
2022-11-27T17:49:21.321Z,7.67
2022-11-27T17:51:49.511Z,7.74
2022-11-27T17:54:16.983Z,7.64
2022-11-27T17:56:44.559Z,7.49
2022-11-27T17:59:11.528Z,7.32
2022-11-27T18:01:39.190Z,7.24
2022-11-27T18:04:06.268Z,7.07
2022-11-27T18:06:33.876Z,6.98
2022-11-27T18:09:01.289Z,6.79
2022-11-27T18:11:29.497Z,6.59
2022-11-27T18:13:58.661Z,6.51
2022-11-27T18:16:28.330Z,6.64
2022-11-27T18:18:55.873Z,6.92
2022-11-27T18:21:26.490Z,7.27
2022-11-27T18:24:21.954Z,7.71
2022-11-27T18:29:27.118Z,8.51
2022-11-27T18:31:53.960Z,8.83
2022-11-27T18:34:20.590Z,8.85
2022-11-27T18:36:47.405Z,8.95
2022-11-27T18:39:15.021Z,9.08
2022-11-27T18:41:41.946Z,9.28
2022-11-27T18:44:08.494Z,9.30
2022-11-27T18:46:35.181Z,9.11
2022-11-27T18:49:01.735Z,8.94
2022-11-27T18:51:28.594Z,8.67
2022-11-27T18:53:55.884Z,8.47
2022-11-27T18:56:23.608Z,8.61
2022-11-27T18:58:50.992Z,8.44
2022-11-27T19:01:22.307Z,8.13
2022-11-27T19:03:49.385Z,8.04
2022-11-27T19:06:17.630Z,8.15
2022-11-27T19:08:45.630Z,8.41
2022-11-27T19:11:14.250Z,8.48
2022-11-27T19:13:41.943Z,8.34
2022-11-27T19:16:11.008Z,8.36
2022-11-27T19:18:38.085Z,8.58
2022-11-27T19:21:09.082Z,8.57
2022-11-27T19:23:39.204Z,8.60
2022-11-27T19:26:07.516Z,8.52
2022-11-27T19:28:34.483Z,8.40
2022-11-27T19:31:09.588Z,8.41
2022-11-27T19:33:38.338Z,8.59
2022-11-27T19:36:09.720Z,8.75
2022-11-27T19:38:36.934Z,8.72
2022-11-27T19:41:07.715Z,8.50
2022-11-27T19:43:34.603Z,8.41
2022-11-27T19:46:01.331Z,8.30
2022-11-27T19:48:28.115Z,8.28
2022-11-27T19:51:00.161Z,8.41
2022-11-27T19:53:27.244Z,8.69
2022-11-27T19:55:54.608Z,8.92
2022-11-27T19:58:21.362Z,9.08
2022-11-27T20:00:47.998Z,9.21
2022-11-27T20:03:14.713Z,9.26
2022-11-27T20:05:41.434Z,9.24
2022-11-27T20:08:07.989Z,9.16
2022-11-27T20:10:34.488Z,9.29
2022-11-27T20:13:01.264Z,9.38
2022-11-27T20:15:28.417Z,9.51
2022-11-27T20:17:55.283Z,9.66
2022-11-27T20:20:22.341Z,9.66
2022-11-27T20:22:49.756Z,9.41
2022-11-27T20:25:20.560Z,8.87
2022-11-27T20:27:48.255Z,8.80
2022-11-27T20:30:14.811Z,8.59
2022-11-27T20:32:41.624Z,8.79
2022-11-27T20:35:09.114Z,8.93
2022-11-27T20:37:37.363Z,8.75
2022-11-27T20:40:04.806Z,8.51
2022-11-27T20:42:32.508Z,8.57
2022-11-27T20:45:04.348Z,8.74
2022-11-27T20:47:31.201Z,8.90
2022-11-27T20:49:58.221Z,8.82
2022-11-27T20:52:24.965Z,8.70
2022-11-27T20:54:52.303Z,8.70
2022-11-27T20:57:19.059Z,8.75
2022-11-27T20:59:45.602Z,8.88
2022-11-27T21:02:12.458Z,9.01
2022-11-27T21:04:39.375Z,9.21
2022-11-27T21:07:06.220Z,9.22
2022-11-27T21:09:33.264Z,9.01
2022-11-27T21:12:00.310Z,8.71
2022-11-27T21:14:27.794Z,8.51
2022-11-27T21:16:54.832Z,8.66
2022-11-27T21:19:23.121Z,8.77
2022-11-27T21:21:51.923Z,8.81
2022-11-27T21:24:19.048Z,8.85
2022-11-27T21:26:46.458Z,9.00
2022-11-27T21:29:14.363Z,9.19
2022-11-27T21:31:46.164Z,9.29
2022-11-27T21:34:14.076Z,9.31
2022-11-27T21:36:40.706Z,9.36
2022-11-27T21:39:10.106Z,9.43
2022-11-27T21:41:37.049Z,9.29
2022-11-27T21:44:04.584Z,9.26
2022-11-27T21:46:31.986Z,9.28
2022-11-27T21:49:00.180Z,9.22
2022-11-27T21:51:27.025Z,9.21
2022-11-27T21:53:56.088Z,9.29
2022-11-27T21:56:24.385Z,9.37
2022-11-27T21:58:51.397Z,9.33
2022-11-27T22:01:20.782Z,9.28
2022-11-27T22:03:50.812Z,9.19
2022-11-27T22:06:17.854Z,9.07
2022-11-27T22:08:46.678Z,9.16
2022-11-27T22:11:15.122Z,9.30
2022-11-27T22:13:42.011Z,9.35
2022-11-27T22:16:10.619Z,9.28
2022-11-27T22:18:37.801Z,9.06
2022-11-27T22:21:05.199Z,8.83
2022-11-27T22:23:32.402Z,8.71
2022-11-27T22:26:00.098Z,8.68
2022-11-27T22:28:27.420Z,8.57
2022-11-27T22:30:54.140Z,8.39
2022-11-27T22:33:21.146Z,8.44
2022-11-27T22:35:47.650Z,8.25
2022-11-27T22:38:14.457Z,8.13
2022-11-27T22:40:43.692Z,8.18
2022-11-27T22:43:10.617Z,8.09
2022-11-27T22:45:38.323Z,8.00
2022-11-27T22:48:05.315Z,8.10
2022-11-27T22:50:32.371Z,8.28
2022-11-27T22:52:59.620Z,8.40
2022-11-27T22:55:27.629Z,8.40
2022-11-27T22:57:54.635Z,8.53
2022-11-27T23:00:22.195Z,8.68
2022-11-27T23:02:48.747Z,8.81
2022-11-27T23:05:15.571Z,8.94
2022-11-27T23:07:42.393Z,9.06
2022-11-27T23:10:09.203Z,9.16
2022-11-27T23:12:35.903Z,9.13
2022-11-27T23:15:02.845Z,9.18
2022-11-27T23:17:29.375Z,9.20
2022-11-27T23:19:56.041Z,9.23
2022-11-27T23:22:22.641Z,9.21
2022-11-27T23:24:49.176Z,9.19
2022-11-27T23:27:15.710Z,9.30
2022-11-27T23:29:42.322Z,9.25
2022-11-27T23:32:09.152Z,8.93
2022-11-27T23:34:35.796Z,8.98
2022-11-27T23:37:02.551Z,9.06
2022-11-27T23:39:29.100Z,9.01
2022-11-27T23:41:55.636Z,9.01
2022-11-27T23:44:22.380Z,8.99
2022-11-27T23:46:48.887Z,9.03
2022-11-27T23:49:15.401Z,9.05
2022-11-27T23:51:42.272Z,9.01
2022-11-27T23:54:09.954Z,9.01
2022-11-27T23:56:37.196Z,9.11
2022-11-27T23:59:03.889Z,9.16
